Terminal Aerodrome Forecast
Issued by NWS

Home | Current Version | Previous Version | Graphics & Text | Print | Product List | Glossary On
Versions: 1 2 3 4 5 6 7 8 9 10 11 12 13 14 15 16 17 18 19 20 21 22 23 24 25 26
000
FTUS43 KLOT 272328
TAFDPA
TAF
KDPA 272328Z 2800/2824 24011G17KT P6SM OVC025
     FM280130 23007KT P6SM BKN030
     FM280700 VRB03KT P6SM BKN100
     FM281300 17007KT P6SM BKN080
     FM282100 09008KT P6SM -SHRA OVC035=

USA.gov is the U.S. government's official web portal to all federal, state and local government web resources and services.